createdAt,value
2023-10-22T00:01:26.376Z,14.48
2023-10-22T00:03:54.284Z,14.55
2023-10-22T00:06:23.624Z,14.52
2023-10-22T00:08:51.450Z,14.51
2023-10-22T00:11:19.210Z,14.49
2023-10-22T00:13:46.975Z,14.50
2023-10-22T00:16:14.809Z,14.50
2023-10-22T00:18:42.618Z,14.48
2023-10-22T00:21:10.468Z,14.50
2023-10-22T00:23:39.631Z,14.49
2023-10-22T00:26:07.861Z,14.49
2023-10-22T00:28:35.759Z,14.49
2023-10-22T00:31:03.526Z,14.49
2023-10-22T00:33:31.468Z,14.50
2023-10-22T00:36:00.465Z,14.57
2023-10-22T00:38:28.407Z,14.52
2023-10-22T00:40:57.525Z,14.51
2023-10-22T00:43:25.288Z,14.50
2023-10-22T00:45:55.093Z,14.50
2023-10-22T00:48:23.885Z,14.45
2023-10-22T00:50:51.919Z,14.47
2023-10-22T00:53:20.068Z,14.45
2023-10-22T00:55:49.458Z,14.50
2023-10-22T00:58:22.262Z,14.47
2023-10-22T01:00:50.147Z,14.48
2023-10-22T01:03:20.205Z,14.46
2023-10-22T01:05:48.187Z,14.47
2023-10-22T01:08:16.053Z,14.45
2023-10-22T01:10:43.820Z,14.46
2023-10-22T01:13:11.682Z,14.45
2023-10-22T01:15:40.844Z,14.44
2023-10-22T01:18:09.507Z,14.32
2023-10-22T01:20:37.399Z,14.44
2023-10-22T01:23:05.181Z,14.44
2023-10-22T01:25:34.269Z,14.43
2023-10-22T01:28:02.061Z,14.43
2023-10-22T01:30:30.429Z,14.43
2023-10-22T01:32:58.288Z,14.43
2023-10-22T01:35:26.112Z,14.41
2023-10-22T01:37:53.905Z,14.41
2023-10-22T01:40:21.720Z,14.41
2023-10-22T01:42:51.570Z,14.37
2023-10-22T01:45:19.620Z,14.38
2023-10-22T01:47:47.539Z,14.39
2023-10-22T01:50:15.594Z,14.38
2023-10-22T01:52:43.318Z,14.37
2023-10-22T01:55:11.100Z,14.37
2023-10-22T01:57:38.855Z,14.36
2023-10-22T02:00:11.878Z,14.44
2023-10-22T02:02:41.062Z,14.37
2023-10-22T02:05:09.544Z,14.38
2023-10-22T02:07:39.204Z,14.40
2023-10-22T02:10:09.745Z,14.38
2023-10-22T02:12:38.201Z,14.38
2023-10-22T02:15:09.209Z,14.36
2023-10-22T02:17:38.313Z,14.38
2023-10-22T02:20:10.063Z,14.31
2023-10-22T02:22:38.316Z,14.36
2023-10-22T02:25:07.828Z,14.35
2023-10-22T02:27:36.276Z,14.21
2023-10-22T02:30:04.388Z,14.28
2023-10-22T02:32:34.062Z,14.30
2023-10-22T02:35:01.817Z,14.29
2023-10-22T02:37:29.748Z,14.35
2023-10-22T02:39:57.583Z,14.33
2023-10-22T02:42:25.376Z,14.36
2023-10-22T02:44:53.152Z,14.33
2023-10-22T02:47:20.913Z,14.34
2023-10-22T02:49:50.091Z,14.26
2023-10-22T02:52:17.887Z,14.34
2023-10-22T02:54:45.646Z,14.35
2023-10-22T02:57:13.426Z,14.30
2023-10-22T02:59:41.265Z,14.34
2023-10-22T03:02:09.040Z,14.36
2023-10-22T03:04:37.134Z,14.35
2023-10-22T03:07:06.567Z,14.34
2023-10-22T03:09:34.702Z,14.36
2023-10-22T03:12:02.558Z,14.23
2023-10-22T03:14:30.368Z,14.30
2023-10-22T03:16:58.804Z,14.33
2023-10-22T03:19:26.681Z,14.22
2023-10-22T03:21:54.391Z,14.32
2023-10-22T03:24:24.128Z,14.32
2023-10-22T03:26:51.987Z,14.31
2023-10-22T03:29:19.759Z,14.17
2023-10-22T03:31:47.584Z,14.30
2023-10-22T03:34:15.354Z,14.29
2023-10-22T03:36:43.201Z,14.29
2023-10-22T03:39:11.026Z,14.29
2023-10-22T03:41:40.315Z,14.25
2023-10-22T03:44:08.105Z,14.28
2023-10-22T03:46:35.959Z,14.21
2023-10-22T03:49:03.939Z,14.12
2023-10-22T03:51:31.783Z,14.26
2023-10-22T03:54:00.672Z,14.26
2023-10-22T03:56:28.441Z,14.24
2023-10-22T03:58:57.501Z,14.24
2023-10-22T04:01:25.300Z,14.22
2023-10-22T04:03:53.176Z,14.21
2023-10-22T04:06:21.005Z,14.20
2023-10-22T04:08:48.841Z,14.20
2023-10-22T04:11:20.854Z,14.18
2023-10-22T04:13:48.794Z,14.18
2023-10-22T04:16:18.708Z,14.17
2023-10-22T04:18:46.536Z,14.18
2023-10-22T04:21:15.463Z,14.17
2023-10-22T04:23:43.703Z,14.16
2023-10-22T04:26:14.927Z,14.04
2023-10-22T04:28:43.932Z,14.15
2023-10-22T04:31:11.796Z,14.12
2023-10-22T04:33:41.753Z,14.11
2023-10-22T04:36:17.136Z,14.09
2023-10-22T04:38:45.020Z,14.13
2023-10-22T04:41:13.156Z,14.12
2023-10-22T04:43:41.073Z,14.11
2023-10-22T04:46:08.919Z,14.08
2023-10-22T04:48:37.201Z,14.11
2023-10-22T04:51:10.404Z,14.10
2023-10-22T04:53:38.482Z,14.08
2023-10-22T04:56:07.433Z,14.08
2023-10-22T04:58:36.502Z,14.08
2023-10-22T05:01:04.385Z,14.08
2023-10-22T05:03:32.337Z,14.07
2023-10-22T05:06:07.793Z,14.04
2023-10-22T05:08:39.416Z,14.06
2023-10-22T05:11:08.020Z,14.05
2023-10-22T05:13:35.825Z,14.02
2023-10-22T05:16:03.919Z,14.05
2023-10-22T05:18:31.977Z,14.02
2023-10-22T05:21:03.163Z,14.04
2023-10-22T05:23:31.228Z,14.03
2023-10-22T05:26:06.355Z,13.98
2023-10-22T05:28:34.275Z,14.03
2023-10-22T05:31:02.091Z,14.00
2023-10-22T05:33:30.044Z,14.01
2023-10-22T05:35:58.311Z,14.01
2023-10-22T05:38:26.072Z,14.00
2023-10-22T05:40:53.813Z,13.97
2023-10-22T05:43:22.988Z,13.98
2023-10-22T05:45:58.770Z,13.98
2023-10-22T05:48:26.773Z,13.97
2023-10-22T05:50:54.589Z,13.92
2023-10-22T05:53:22.430Z,13.95
2023-10-22T05:55:57.353Z,13.75
2023-10-22T05:58:26.568Z,13.71
2023-10-22T06:00:55.297Z,13.73
2023-10-22T06:03:23.410Z,13.75
2023-10-22T06:05:51.327Z,13.77
2023-10-22T06:08:19.159Z,13.80
2023-10-22T06:10:47.525Z,13.81
2023-10-22T06:13:15.473Z,13.82
2023-10-22T06:15:45.791Z,13.74
2023-10-22T06:18:14.171Z,13.74
2023-10-22T06:20:42.309Z,13.75
2023-10-22T06:23:10.384Z,13.75
2023-10-22T06:25:38.116Z,13.75
2023-10-22T06:28:06.881Z,13.75
2023-10-22T06:30:35.213Z,13.76
2023-10-22T06:33:05.248Z,13.77
2023-10-22T06:35:33.391Z,13.72
2023-10-22T06:38:01.161Z,13.76
2023-10-22T06:40:29.002Z,13.76
2023-10-22T06:42:57.191Z,13.74
2023-10-22T06:45:25.038Z,13.75
2023-10-22T06:47:52.970Z,13.76
2023-10-22T06:50:22.116Z,13.75
2023-10-22T06:52:49.838Z,13.72
2023-10-22T06:55:17.647Z,13.74
2023-10-22T06:57:47.203Z,13.75
2023-10-22T07:00:15.800Z,13.75
2023-10-22T07:02:44.960Z,13.75
2023-10-22T07:05:12.792Z,13.74
2023-10-22T07:07:44.103Z,13.72
2023-10-22T07:10:12.252Z,13.75
2023-10-22T07:12:40.128Z,13.63
2023-10-22T07:15:10.373Z,13.75
2023-10-22T07:17:38.233Z,13.74
2023-10-22T07:20:07.436Z,13.71
2023-10-22T07:22:35.216Z,13.73
2023-10-22T07:25:04.660Z,13.73
2023-10-22T07:27:32.482Z,13.74
2023-10-22T07:30:00.311Z,13.62
2023-10-22T07:32:28.171Z,13.76
2023-10-22T07:34:55.924Z,13.77
2023-10-22T07:37:24.023Z,13.78
2023-10-22T07:39:51.759Z,13.64
2023-10-22T07:42:20.945Z,13.78
2023-10-22T07:44:52.309Z,13.65
2023-10-22T07:47:20.185Z,13.79
2023-10-22T07:49:52.773Z,13.79
2023-10-22T07:52:20.670Z,13.76
2023-10-22T07:54:50.895Z,13.73
2023-10-22T07:57:20.101Z,13.72
2023-10-22T07:59:47.950Z,13.71
2023-10-22T08:02:15.714Z,13.66
2023-10-22T08:04:43.826Z,13.73
2023-10-22T08:07:11.607Z,13.74
2023-10-22T08:09:39.436Z,13.74
2023-10-22T08:12:08.766Z,13.75
2023-10-22T08:14:38.190Z,13.75
2023-10-22T08:17:06.066Z,13.76
2023-10-22T08:19:33.887Z,13.77
2023-10-22T08:22:01.909Z,13.76
2023-10-22T08:24:30.625Z,13.77
2023-10-22T08:27:01.076Z,13.77
2023-10-22T08:29:28.894Z,13.81
2023-10-22T08:31:58.096Z,13.81
2023-10-22T08:34:26.138Z,13.78
2023-10-22T08:36:53.922Z,13.82
2023-10-22T08:39:21.830Z,13.82
2023-10-22T08:42:01.308Z,13.94
2023-10-22T08:44:30.371Z,13.90
2023-10-22T08:46:59.592Z,13.87
2023-10-22T08:49:29.373Z,13.77
2023-10-22T08:51:58.160Z,13.89
2023-10-22T08:54:27.637Z,13.88
2023-10-22T08:56:55.937Z,13.89
2023-10-22T08:59:24.499Z,13.84
2023-10-22T09:01:52.921Z,13.92
2023-10-22T09:04:22.334Z,13.91
2023-10-22T09:06:54.655Z,13.92
2023-10-22T09:09:34.626Z,13.94
2023-10-22T09:12:05.081Z,13.93
2023-10-22T09:14:32.992Z,13.94
2023-10-22T09:17:15.852Z,13.94
2023-10-22T09:19:48.269Z,13.95
2023-10-22T09:22:23.740Z,13.95
2023-10-22T09:24:54.125Z,13.93
2023-10-22T09:27:26.213Z,13.94
2023-10-22T09:29:54.759Z,13.93
2023-10-22T09:32:23.068Z,13.93
2023-10-22T09:34:52.299Z,13.95
2023-10-22T09:37:20.122Z,13.95
2023-10-22T09:39:47.980Z,13.95
2023-10-22T09:42:18.156Z,13.95
2023-10-22T09:44:46.788Z,13.96
2023-10-22T09:47:22.422Z,13.96
2023-10-22T09:49:54.142Z,13.97
2023-10-22T09:52:24.430Z,13.99
2023-10-22T09:54:55.921Z,13.99
2023-10-22T09:57:29.817Z,13.99
2023-10-22T09:59:59.826Z,14.00
2023-10-22T10:02:28.574Z,14.00
2023-10-22T10:04:59.754Z,14.02
2023-10-22T10:07:28.065Z,14.03
2023-10-22T10:09:57.011Z,14.02
2023-10-22T10:12:28.997Z,14.03
2023-10-22T10:14:57.020Z,14.03
2023-10-22T10:17:24.893Z,14.05
2023-10-22T10:19:52.816Z,14.05
2023-10-22T10:22:40.375Z,14.06
2023-10-22T10:25:30.826Z,14.06
2023-10-22T10:28:03.307Z,14.06
2023-10-22T10:30:31.591Z,14.07
2023-10-22T10:33:14.283Z,14.06
2023-10-22T10:35:47.934Z,14.02
2023-10-22T10:38:29.455Z,14.00
2023-10-22T10:40:58.029Z,14.09
2023-10-22T10:44:03.741Z,14.09
2023-10-22T10:46:32.776Z,14.09
2023-10-22T10:49:00.743Z,14.10
2023-10-22T10:51:29.470Z,14.10
2023-10-22T10:54:22.711Z,14.10
2023-10-22T10:56:56.242Z,14.11
2023-10-22T10:59:35.610Z,14.09
2023-10-22T11:02:09.027Z,14.10
2023-10-22T11:04:38.819Z,14.12
2023-10-22T11:07:18.776Z,14.11
2023-10-22T11:09:55.969Z,14.12
2023-10-22T11:12:25.987Z,14.12
2023-10-22T11:14:58.057Z,14.13
2023-10-22T11:17:26.640Z,14.02
2023-10-22T11:19:54.770Z,14.11
2023-10-22T11:22:22.661Z,14.15
2023-10-22T11:24:52.286Z,14.15
2023-10-22T11:27:22.100Z,14.16
2023-10-22T11:29:51.136Z,14.17
2023-10-22T11:32:20.011Z,14.17
2023-10-22T11:34:52.549Z,14.13
2023-10-22T11:37:21.820Z,14.08
2023-10-22T11:39:50.111Z,14.19
2023-10-22T11:42:18.001Z,14.21
2023-10-22T11:44:47.779Z,14.18
2023-10-22T11:47:26.998Z,14.19
2023-10-22T11:49:55.658Z,14.25
2023-10-22T11:52:39.814Z,14.19
2023-10-22T11:55:15.104Z,14.24
2023-10-22T11:57:46.660Z,14.23
2023-10-22T12:00:16.818Z,14.23
2023-10-22T12:02:44.917Z,14.17
2023-10-22T12:05:13.648Z,14.23
2023-10-22T12:07:41.606Z,14.22
2023-10-22T12:10:11.469Z,14.22
2023-10-22T12:12:39.518Z,14.21
2023-10-22T12:15:09.233Z,14.19
2023-10-22T12:17:38.474Z,14.22
2023-10-22T12:20:07.465Z,14.32
2023-10-22T12:22:35.294Z,14.44
2023-10-22T12:25:05.193Z,14.61
2023-10-22T12:27:33.273Z,14.69
2023-10-22T12:30:01.178Z,14.79
2023-10-22T12:32:29.108Z,14.92
2023-10-22T12:34:58.519Z,15.10
2023-10-22T12:37:26.314Z,15.21
2023-10-22T12:39:54.596Z,15.22
2023-10-22T12:42:22.404Z,15.18
2023-10-22T12:44:50.452Z,15.04
2023-10-22T12:47:18.888Z,15.00
2023-10-22T12:49:46.997Z,14.90
2023-10-22T12:52:16.304Z,14.87
2023-10-22T12:54:46.164Z,14.73
2023-10-22T12:57:14.194Z,14.79
2023-10-22T12:59:42.024Z,14.75
2023-10-22T13:02:11.236Z,14.72
2023-10-22T13:04:39.504Z,14.68
2023-10-22T13:07:08.106Z,14.64
2023-10-22T13:09:37.323Z,14.69
2023-10-22T13:12:05.663Z,14.68
2023-10-22T13:14:33.515Z,14.67
2023-10-22T13:17:01.671Z,14.67
2023-10-22T13:19:29.536Z,14.69
2023-10-22T13:21:57.360Z,14.68
2023-10-22T13:24:25.347Z,14.67
2023-10-22T13:26:55.063Z,14.70
2023-10-22T13:29:22.889Z,14.73
2023-10-22T13:31:51.498Z,14.73
2023-10-22T13:34:19.264Z,14.70
2023-10-22T13:36:47.412Z,14.71
2023-10-22T13:39:15.278Z,14.72
2023-10-22T13:41:43.893Z,14.72
2023-10-22T13:44:13.164Z,14.71
2023-10-22T13:46:40.964Z,14.74
2023-10-22T13:49:08.776Z,14.74
2023-10-22T13:51:36.574Z,14.73
2023-10-22T13:54:04.842Z,14.72
2023-10-22T13:56:32.611Z,14.72
2023-10-22T13:59:01.491Z,14.71
2023-10-22T14:01:30.737Z,14.73
2023-10-22T14:03:58.718Z,14.73
2023-10-22T14:06:26.651Z,14.70
2023-10-22T14:08:54.536Z,14.74
2023-10-22T14:11:23.122Z,14.72
2023-10-22T14:13:52.230Z,14.72
2023-10-22T14:16:21.612Z,14.71
2023-10-22T14:18:50.962Z,14.73
2023-10-22T14:21:21.581Z,14.70
2023-10-22T14:23:49.452Z,14.72
2023-10-22T14:26:17.230Z,14.74
2023-10-22T14:28:45.049Z,14.73
2023-10-22T14:31:12.843Z,14.74
2023-10-22T14:33:41.932Z,14.75
2023-10-22T14:36:13.452Z,14.73
2023-10-22T14:38:41.307Z,14.77
2023-10-22T14:41:09.131Z,14.79
2023-10-22T14:43:36.984Z,14.79
2023-10-22T14:46:05.375Z,14.79
2023-10-22T14:48:33.638Z,14.79
2023-10-22T14:51:02.778Z,14.80
2023-10-22T14:53:32.840Z,14.80
2023-10-22T14:56:01.899Z,14.80
2023-10-22T14:58:30.550Z,14.80
2023-10-22T15:01:03.069Z,14.79
2023-10-22T15:03:31.292Z,14.79
2023-10-22T15:05:59.534Z,14.77
2023-10-22T15:08:27.565Z,14.65
2023-10-22T15:10:56.772Z,14.76
2023-10-22T15:13:24.778Z,14.77
2023-10-22T15:15:52.565Z,14.78
2023-10-22T15:18:20.465Z,14.78
2023-10-22T15:20:50.620Z,14.79
2023-10-22T15:23:19.142Z,14.77
2023-10-22T15:25:48.172Z,14.78
2023-10-22T15:28:18.275Z,14.78
2023-10-22T15:30:47.223Z,14.76
2023-10-22T15:33:15.784Z,14.76
2023-10-22T15:35:43.669Z,14.76
2023-10-22T15:38:14.329Z,14.77
2023-10-22T15:40:42.198Z,14.74
2023-10-22T15:43:12.009Z,14.74
2023-10-22T15:45:45.955Z,14.73
2023-10-22T15:48:14.522Z,14.77
2023-10-22T15:50:43.821Z,14.77
2023-10-22T15:53:12.090Z,14.76
2023-10-22T15:55:40.245Z,14.76
2023-10-22T15:58:08.000Z,14.75
2023-10-22T16:00:37.078Z,14.76
2023-10-22T16:03:06.566Z,14.79
2023-10-22T16:05:38.922Z,14.94
2023-10-22T16:08:08.017Z,15.13
2023-10-22T16:10:36.234Z,15.32
2023-10-22T16:13:04.895Z,15.49
2023-10-22T16:15:32.778Z,15.67
2023-10-22T16:18:00.692Z,15.89
2023-10-22T16:20:29.971Z,16.08
2023-10-22T16:22:58.438Z,16.21
2023-10-22T16:25:26.587Z,16.33
2023-10-22T16:27:54.340Z,16.49
2023-10-22T16:30:22.847Z,16.58
2023-10-22T16:32:53.694Z,16.60
2023-10-22T16:35:21.647Z,16.51
2023-10-22T16:37:50.783Z,16.34
2023-10-22T16:40:18.621Z,16.15
2023-10-22T16:42:47.454Z,15.96
2023-10-22T16:45:15.398Z,15.82
2023-10-22T16:47:43.229Z,15.70
2023-10-22T16:50:11.671Z,15.60
2023-10-22T16:52:39.437Z,15.52
2023-10-22T16:55:10.033Z,15.50
2023-10-22T16:57:37.860Z,15.40
2023-10-22T17:00:08.471Z,15.38
2023-10-22T17:02:36.479Z,15.38
2023-10-22T17:05:04.382Z,15.36
2023-10-22T17:07:34.641Z,15.33
2023-10-22T17:10:03.155Z,15.30
2023-10-22T17:12:31.390Z,15.28
2023-10-22T17:14:59.913Z,15.25
2023-10-22T17:17:28.147Z,15.22
2023-10-22T17:19:56.081Z,15.19
2023-10-22T17:22:23.952Z,15.17
2023-10-22T17:24:51.700Z,15.14
2023-10-22T17:27:19.532Z,15.13
2023-10-22T17:29:48.656Z,15.12
2023-10-22T17:32:16.402Z,15.09
2023-10-22T17:34:44.157Z,15.08
2023-10-22T17:37:12.560Z,15.06
2023-10-22T17:39:41.941Z,15.01
2023-10-22T17:42:11.772Z,15.03
2023-10-22T17:44:40.827Z,15.03
2023-10-22T17:47:10.077Z,15.03
2023-10-22T17:49:38.181Z,15.02
2023-10-22T17:52:06.733Z,15.02
2023-10-22T17:54:34.533Z,15.01
2023-10-22T17:57:02.709Z,14.92
2023-10-22T17:59:30.515Z,14.98
2023-10-22T18:01:58.765Z,14.99
2023-10-22T18:04:28.513Z,15.03
2023-10-22T18:06:56.734Z,15.04
2023-10-22T18:09:24.548Z,15.04
2023-10-22T18:11:52.368Z,15.04
2023-10-22T18:14:20.130Z,15.03
2023-10-22T18:16:49.824Z,15.03
2023-10-22T18:19:27.234Z,15.01
2023-10-22T18:22:05.029Z,15.01
2023-10-22T18:24:32.850Z,15.01
2023-10-22T18:27:00.626Z,15.00
2023-10-22T18:29:28.333Z,14.97
2023-10-22T18:31:57.634Z,15.01
2023-10-22T18:34:28.571Z,15.02
2023-10-22T18:36:56.419Z,15.04
2023-10-22T18:39:25.624Z,15.03
2023-10-22T18:42:07.545Z,15.04
2023-10-22T18:44:39.906Z,15.03
2023-10-22T18:47:07.876Z,15.02
2023-10-22T18:49:35.678Z,15.01
2023-10-22T18:52:05.130Z,14.96
2023-10-22T18:54:34.259Z,14.98
2023-10-22T18:57:02.020Z,14.97
2023-10-22T18:59:29.829Z,14.96
2023-10-22T19:01:57.689Z,14.96
2023-10-22T19:04:25.597Z,14.94
2023-10-22T19:06:55.880Z,14.93
2023-10-22T19:09:23.972Z,14.88
2023-10-22T19:11:53.149Z,14.90
2023-10-22T19:14:20.917Z,14.90
2023-10-22T19:16:48.719Z,14.77
2023-10-22T19:19:16.664Z,14.88
2023-10-22T19:21:44.539Z,14.87
2023-10-22T19:24:12.362Z,14.86
2023-10-22T19:26:40.151Z,14.85
2023-10-22T19:29:09.315Z,14.83
2023-10-22T19:31:39.130Z,14.83
2023-10-22T19:34:07.152Z,14.82
2023-10-22T19:36:35.227Z,14.81
2023-10-22T19:39:03.187Z,14.80
2023-10-22T19:41:31.292Z,14.80
2023-10-22T19:43:59.920Z,14.79
2023-10-22T19:46:29.185Z,14.75
2023-10-22T19:48:57.013Z,14.77
2023-10-22T19:51:24.854Z,14.76
2023-10-22T19:53:53.199Z,14.76
2023-10-22T19:56:20.933Z,14.75
2023-10-22T19:58:49.353Z,14.75
2023-10-22T20:01:19.586Z,14.73
2023-10-22T20:03:50.397Z,14.73
2023-10-22T20:06:20.688Z,14.71
2023-10-22T20:08:49.694Z,14.71
2023-10-22T20:11:17.717Z,14.69
2023-10-22T20:13:46.352Z,14.70
2023-10-22T20:16:21.878Z,14.69
2023-10-22T20:18:52.242Z,14.65
2023-10-22T20:21:21.068Z,14.64
2023-10-22T20:23:49.440Z,14.66
2023-10-22T20:26:17.242Z,14.65
2023-10-22T20:28:46.426Z,14.63
2023-10-22T20:31:15.649Z,14.60
2023-10-22T20:33:45.297Z,14.65
2023-10-22T20:36:16.997Z,14.66
2023-10-22T20:38:45.836Z,14.66
2023-10-22T20:41:14.435Z,14.64
2023-10-22T20:43:44.072Z,14.64
2023-10-22T20:46:12.093Z,14.64
2023-10-22T20:48:40.088Z,14.62
2023-10-22T20:51:10.274Z,14.61
2023-10-22T20:53:40.367Z,14.59
2023-10-22T20:56:09.708Z,14.59
2023-10-22T20:58:37.551Z,14.58
2023-10-22T21:01:16.884Z,14.59
2023-10-22T21:03:46.347Z,14.59
2023-10-22T21:06:14.877Z,14.62
2023-10-22T21:08:44.893Z,14.63
2023-10-22T21:11:13.569Z,14.62
2023-10-22T21:13:41.532Z,14.62
2023-10-22T21:16:11.920Z,14.50
2023-10-22T21:18:42.298Z,14.59
2023-10-22T21:21:10.175Z,14.60
2023-10-22T21:23:39.799Z,14.61
2023-10-22T21:26:09.522Z,14.64
2023-10-22T21:28:37.403Z,14.64
2023-10-22T21:31:06.531Z,14.64
2023-10-22T21:33:34.714Z,14.63
2023-10-22T21:36:03.879Z,14.63
2023-10-22T21:38:32.041Z,14.62
2023-10-22T21:41:00.103Z,14.60
2023-10-22T21:43:29.540Z,14.58
2023-10-22T21:46:06.781Z,14.57
2023-10-22T21:48:34.684Z,14.54
2023-10-22T21:51:02.501Z,14.53
2023-10-22T21:53:30.373Z,14.50
2023-10-22T21:55:59.585Z,14.50
2023-10-22T21:58:27.420Z,14.49
2023-10-22T22:00:57.123Z,14.48
2023-10-22T22:03:25.155Z,14.46
2023-10-22T22:05:53.063Z,14.44
2023-10-22T22:08:20.883Z,14.42
2023-10-22T22:10:48.751Z,14.41
2023-10-22T22:13:17.805Z,14.41
2023-10-22T22:15:45.755Z,14.40
2023-10-22T22:18:14.957Z,14.39
2023-10-22T22:20:42.741Z,14.38
2023-10-22T22:23:11.026Z,14.37
2023-10-22T22:25:45.090Z,14.37
2023-10-22T22:28:13.917Z,14.36
2023-10-22T22:30:41.926Z,14.36
2023-10-22T22:33:09.771Z,14.35
2023-10-22T22:35:38.903Z,14.34
2023-10-22T22:38:06.771Z,14.32
2023-10-22T22:40:34.597Z,14.32
2023-10-22T22:43:02.327Z,14.30
2023-10-22T22:45:30.179Z,14.30
2023-10-22T22:47:58.034Z,14.29
2023-10-22T22:50:26.089Z,14.29
2023-10-22T22:52:55.228Z,14.28
2023-10-22T22:55:23.056Z,14.27
2023-10-22T22:57:50.846Z,14.27
2023-10-22T23:00:19.688Z,14.26
2023-10-22T23:02:47.638Z,14.25
2023-10-22T23:05:15.496Z,14.23
2023-10-22T23:07:43.287Z,14.24
2023-10-22T23:10:12.860Z,14.22
2023-10-22T23:12:40.713Z,14.21
2023-10-22T23:15:10.336Z,14.16
2023-10-22T23:17:38.134Z,14.19
2023-10-22T23:20:06.947Z,14.19
2023-10-22T23:22:34.772Z,14.18
2023-10-22T23:25:02.532Z,14.18
2023-10-22T23:27:31.686Z,14.18
2023-10-22T23:29:59.543Z,14.17
2023-10-22T23:32:27.398Z,14.15
2023-10-22T23:34:55.160Z,14.15
2023-10-22T23:37:22.939Z,14.14
2023-10-22T23:39:52.542Z,14.12
2023-10-22T23:42:20.430Z,14.14
2023-10-22T23:44:49.587Z,14.12
2023-10-22T23:47:17.360Z,14.12
2023-10-22T23:49:45.163Z,14.11
2023-10-22T23:52:12.957Z,14.10
2023-10-22T23:54:40.962Z,14.06
2023-10-22T23:57:08.932Z,14.10
2023-10-22T23:59:36.822Z,14.08
